sensor_id;sensor_type;location;lat;lon;timestamp;P1;durP1;ratioP1;P2;durP2;ratioP2
38224;SDS011;24025;48.138;11.428;2023-11-21T00:00:18;4.57;;;0.70;;
38224;SDS011;24025;48.138;11.428;2023-11-21T00:02:49;1.02;;;0.30;;
38224;SDS011;24025;48.138;11.428;2023-11-21T00:05:21;2.90;;;0.50;;
38224;SDS011;24025;48.138;11.428;2023-11-21T00:07:54;6.50;;;0.57;;
38224;SDS011;24025;48.138;11.428;2023-11-21T00:10:26;5.00;;;0.60;;
38224;SDS011;24025;48.138;11.428;2023-11-21T00:12:58;9.55;;;0.70;;
38224;SDS011;24025;48.138;11.428;2023-11-21T00:15:29;3.67;;;0.50;;
38224;SDS011;24025;48.138;11.428;2023-11-21T00:18:01;1.30;;;0.40;;
38224;SDS011;24025;48.138;11.428;2023-11-21T00:20:32;2.90;;;0.68;;
38224;SDS011;24025;48.138;11.428;2023-11-21T00:23:04;1.55;;;0.55;;
38224;SDS011;24025;48.138;11.428;2023-11-21T00:25:36;2.50;;;0.53;;
38224;SDS011;24025;48.138;11.428;2023-11-21T00:28:07;2.13;;;0.20;;
38224;SDS011;24025;48.138;11.428;2023-11-21T00:30:39;0.75;;;0.28;;
38224;SDS011;24025;48.138;11.428;2023-11-21T00:33:11;2.67;;;0.80;;
38224;SDS011;24025;48.138;11.428;2023-11-21T00:35:44;11.13;;;0.80;;
38224;SDS011;24025;48.138;11.428;2023-11-21T00:38:15;1.58;;;0.43;;
38224;SDS011;24025;48.138;11.428;2023-11-21T00:40:50;4.75;;;1.30;;
38224;SDS011;24025;48.138;11.428;2023-11-21T00:43:22;4.78;;;1.42;;
38224;SDS011;24025;48.138;11.428;2023-11-21T00:48:26;3.95;;;0.45;;
38224;SDS011;24025;48.138;11.428;2023-11-21T00:50:58;3.90;;;0.55;;
38224;SDS011;24025;48.138;11.428;2023-11-21T00:53:29;1.13;;;0.25;;
38224;SDS011;24025;48.138;11.428;2023-11-21T00:56:01;1.45;;;0.43;;
38224;SDS011;24025;48.138;11.428;2023-11-21T01:01:05;2.10;;;0.20;;
38224;SDS011;24025;48.138;11.428;2023-11-21T01:03:37;0.95;;;0.20;;
38224;SDS011;24025;48.138;11.428;2023-11-21T01:06:08;0.63;;;0.30;;
38224;SDS011;24025;48.138;11.428;2023-11-21T01:08:42;0.40;;;0.20;;
38224;SDS011;24025;48.138;11.428;2023-11-21T01:11:14;3.92;;;0.35;;
38224;SDS011;24025;48.138;11.428;2023-11-21T01:13:46;2.75;;;0.43;;
38224;SDS011;24025;48.138;11.428;2023-11-21T01:16:18;5.85;;;0.45;;
38224;SDS011;24025;48.138;11.428;2023-11-21T01:18:49;0.63;;;0.28;;
38224;SDS011;24025;48.138;11.428;2023-11-21T01:21:21;8.33;;;0.83;;
38224;SDS011;24025;48.138;11.428;2023-11-21T01:23:54;1.90;;;0.20;;
38224;SDS011;24025;48.138;11.428;2023-11-21T01:28:58;4.35;;;1.10;;
38224;SDS011;24025;48.138;11.428;2023-11-21T01:34:02;2.97;;;0.52;;
38224;SDS011;24025;48.138;11.428;2023-11-21T01:36:34;3.90;;;0.95;;
38224;SDS011;24025;48.138;11.428;2023-11-21T01:39:06;7.68;;;0.73;;
38224;SDS011;24025;48.138;11.428;2023-11-21T01:41:40;2.65;;;0.75;;
38224;SDS011;24025;48.138;11.428;2023-11-21T01:44:11;4.13;;;0.43;;
38224;SDS011;24025;48.138;11.428;2023-11-21T01:46:47;6.20;;;0.90;;
38224;SDS011;24025;48.138;11.428;2023-11-21T01:49:19;5.82;;;1.45;;
38224;SDS011;24025;48.138;11.428;2023-11-21T01:51:51;6.03;;;0.90;;
38224;SDS011;24025;48.138;11.428;2023-11-21T01:54:23;3.60;;;0.75;;
38224;SDS011;24025;48.138;11.428;2023-11-21T01:56:55;1.73;;;0.60;;
38224;SDS011;24025;48.138;11.428;2023-11-21T01:59:26;3.15;;;0.60;;
38224;SDS011;24025;48.138;11.428;2023-11-21T02:02:03;2.05;;;0.55;;
38224;SDS011;24025;48.138;11.428;2023-11-21T02:04:37;4.07;;;0.90;;
38224;SDS011;24025;48.138;11.428;2023-11-21T02:07:09;5.25;;;1.42;;
38224;SDS011;24025;48.138;11.428;2023-11-21T02:09:41;3.10;;;1.30;;
38224;SDS011;24025;48.138;11.428;2023-11-21T02:12:13;5.22;;;1.50;;
38224;SDS011;24025;48.138;11.428;2023-11-21T02:14:46;5.78;;;0.75;;
38224;SDS011;24025;48.138;11.428;2023-11-21T02:17:19;2.97;;;0.82;;
38224;SDS011;24025;48.138;11.428;2023-11-21T02:19:51;8.80;;;1.08;;
38224;SDS011;24025;48.138;11.428;2023-11-21T02:22:23;2.67;;;0.55;;
38224;SDS011;24025;48.138;11.428;2023-11-21T02:24:57;4.13;;;0.40;;
38224;SDS011;24025;48.138;11.428;2023-11-21T02:27:29;1.47;;;0.17;;
38224;SDS011;24025;48.138;11.428;2023-11-21T02:30:01;1.20;;;0.17;;
38224;SDS011;24025;48.138;11.428;2023-11-21T02:32:35;1.52;;;0.28;;
38224;SDS011;24025;48.138;11.428;2023-11-21T02:35:19;0.65;;;0.20;;
38224;SDS011;24025;48.138;11.428;2023-11-21T02:37:54;4.63;;;0.30;;
38224;SDS011;24025;48.138;11.428;2023-11-21T02:40:26;5.50;;;0.43;;
38224;SDS011;24025;48.138;11.428;2023-11-21T02:45:31;5.13;;;0.32;;
38224;SDS011;24025;48.138;11.428;2023-11-21T02:48:02;6.10;;;0.50;;
38224;SDS011;24025;48.138;11.428;2023-11-21T02:50:36;2.65;;;0.32;;
38224;SDS011;24025;48.138;11.428;2023-11-21T02:53:08;1.75;;;0.40;;
38224;SDS011;24025;48.138;11.428;2023-11-21T02:55:42;1.45;;;0.47;;
38224;SDS011;24025;48.138;11.428;2023-11-21T02:58:13;2.03;;;0.30;;
38224;SDS011;24025;48.138;11.428;2023-11-21T03:00:46;3.13;;;0.50;;
38224;SDS011;24025;48.138;11.428;2023-11-21T03:03:17;1.33;;;0.45;;
38224;SDS011;24025;48.138;11.428;2023-11-21T03:08:21;4.90;;;0.52;;
38224;SDS011;24025;48.138;11.428;2023-11-21T03:10:52;3.07;;;0.40;;
38224;SDS011;24025;48.138;11.428;2023-11-21T03:13:24;3.00;;;0.30;;
38224;SDS011;24025;48.138;11.428;2023-11-21T03:15:55;5.00;;;0.50;;
38224;SDS011;24025;48.138;11.428;2023-11-21T03:18:27;1.60;;;0.20;;
38224;SDS011;24025;48.138;11.428;2023-11-21T03:21:00;3.28;;;0.75;;
38224;SDS011;24025;48.138;11.428;2023-11-21T03:23:32;1.30;;;0.17;;
38224;SDS011;24025;48.138;11.428;2023-11-21T03:26:03;2.30;;;0.40;;
38224;SDS011;24025;48.138;11.428;2023-11-21T03:28:35;0.88;;;0.30;;
38224;SDS011;24025;48.138;11.428;2023-11-21T03:31:06;2.23;;;0.20;;
38224;SDS011;24025;48.138;11.428;2023-11-21T03:33:40;1.13;;;0.22;;
38224;SDS011;24025;48.138;11.428;2023-11-21T03:36:11;3.97;;;0.50;;
38224;SDS011;24025;48.138;11.428;2023-11-21T03:38:43;4.95;;;0.50;;
38224;SDS011;24025;48.138;11.428;2023-11-21T03:41:15;1.53;;;0.40;;
38224;SDS011;24025;48.138;11.428;2023-11-21T03:43:46;2.20;;;0.30;;
38224;SDS011;24025;48.138;11.428;2023-11-21T03:46:18;0.93;;;0.20;;
38224;SDS011;24025;48.138;11.428;2023-11-21T03:48:49;2.37;;;0.40;;
38224;SDS011;24025;48.138;11.428;2023-11-21T03:51:21;1.20;;;0.20;;
38224;SDS011;24025;48.138;11.428;2023-11-21T03:53:53;2.88;;;0.70;;
38224;SDS011;24025;48.138;11.428;2023-11-21T03:56:24;2.50;;;0.20;;
38224;SDS011;24025;48.138;11.428;2023-11-21T03:58:56;1.75;;;0.20;;
38224;SDS011;24025;48.138;11.428;2023-11-21T04:01:28;4.85;;;0.25;;
38224;SDS011;24025;48.138;11.428;2023-11-21T04:03:59;0.40;;;0.10;;
38224;SDS011;24025;48.138;11.428;2023-11-21T04:06:31;2.13;;;0.30;;
38224;SDS011;24025;48.138;11.428;2023-11-21T04:09:04;2.25;;;0.50;;
38224;SDS011;24025;48.138;11.428;2023-11-21T04:11:36;2.63;;;0.40;;
38224;SDS011;24025;48.138;11.428;2023-11-21T04:14:07;2.08;;;0.60;;
38224;SDS011;24025;48.138;11.428;2023-11-21T04:16:40;2.22;;;0.38;;
38224;SDS011;24025;48.138;11.428;2023-11-21T04:21:46;1.75;;;0.20;;
38224;SDS011;24025;48.138;11.428;2023-11-21T04:24:18;1.05;;;0.30;;
38224;SDS011;24025;48.138;11.428;2023-11-21T04:26:50;2.27;;;0.30;;
38224;SDS011;24025;48.138;11.428;2023-11-21T04:29:21;2.77;;;0.20;;
38224;SDS011;24025;48.138;11.428;2023-11-21T04:34:25;1.75;;;0.28;;
38224;SDS011;24025;48.138;11.428;2023-11-21T04:36:57;0.75;;;0.25;;
38224;SDS011;24025;48.138;11.428;2023-11-21T04:39:28;2.38;;;0.30;;
38224;SDS011;24025;48.138;11.428;2023-11-21T04:42:00;1.40;;;0.30;;
38224;SDS011;24025;48.138;11.428;2023-11-21T04:44:31;3.10;;;0.43;;
38224;SDS011;24025;48.138;11.428;2023-11-21T04:47:03;1.60;;;0.53;;
38224;SDS011;24025;48.138;11.428;2023-11-21T04:49:36;1.75;;;0.32;;
38224;SDS011;24025;48.138;11.428;2023-11-21T04:52:07;2.42;;;0.68;;
38224;SDS011;24025;48.138;11.428;2023-11-21T04:54:40;1.45;;;0.30;;
38224;SDS011;24025;48.138;11.428;2023-11-21T04:57:12;4.60;;;0.20;;
38224;SDS011;24025;48.138;11.428;2023-11-21T04:59:43;3.50;;;0.60;;
38224;SDS011;24025;48.138;11.428;2023-11-21T05:02:15;3.43;;;0.20;;
38224;SDS011;24025;48.138;11.428;2023-11-21T05:05:05;3.22;;;0.40;;
38224;SDS011;24025;48.138;11.428;2023-11-21T05:07:39;4.38;;;0.32;;
38224;SDS011;24025;48.138;11.428;2023-11-21T05:10:12;0.57;;;0.10;;
38224;SDS011;24025;48.138;11.428;2023-11-21T05:12:46;2.25;;;0.40;;
38224;SDS011;24025;48.138;11.428;2023-11-21T05:15:17;5.50;;;0.55;;
38224;SDS011;24025;48.138;11.428;2023-11-21T05:17:49;1.92;;;0.45;;
38224;SDS011;24025;48.138;11.428;2023-11-21T05:20:21;1.75;;;0.20;;
38224;SDS011;24025;48.138;11.428;2023-11-21T05:22:53;10.23;;;1.92;;
38224;SDS011;24025;48.138;11.428;2023-11-21T05:25:24;3.58;;;0.50;;
38224;SDS011;24025;48.138;11.428;2023-11-21T05:27:56;3.17;;;0.23;;
38224;SDS011;24025;48.138;11.428;2023-11-21T05:30:30;0.90;;;0.30;;
38224;SDS011;24025;48.138;11.428;2023-11-21T05:33:02;2.38;;;0.30;;
38224;SDS011;24025;48.138;11.428;2023-11-21T05:35:34;2.03;;;0.40;;
38224;SDS011;24025;48.138;11.428;2023-11-21T05:38:06;1.43;;;0.40;;
38224;SDS011;24025;48.138;11.428;2023-11-21T05:40:38;0.75;;;0.22;;
38224;SDS011;24025;48.138;11.428;2023-11-21T05:43:09;1.87;;;0.50;;
38224;SDS011;24025;48.138;11.428;2023-11-21T05:45:41;0.38;;;0.20;;
38224;SDS011;24025;48.138;11.428;2023-11-21T05:48:13;2.38;;;0.40;;
38224;SDS011;24025;48.138;11.428;2023-11-21T05:50:44;3.47;;;0.40;;
38224;SDS011;24025;48.138;11.428;2023-11-21T05:53:16;1.08;;;0.20;;
38224;SDS011;24025;48.138;11.428;2023-11-21T05:55:48;2.10;;;0.47;;
38224;SDS011;24025;48.138;11.428;2023-11-21T05:58:19;1.42;;;0.38;;
38224;SDS011;24025;48.138;11.428;2023-11-21T06:00:51;1.35;;;0.40;;
38224;SDS011;24025;48.138;11.428;2023-11-21T06:03:22;1.80;;;0.30;;
38224;SDS011;24025;48.138;11.428;2023-11-21T06:05:54;1.70;;;0.20;;
38224;SDS011;24025;48.138;11.428;2023-11-21T06:08:26;1.27;;;0.47;;
38224;SDS011;24025;48.138;11.428;2023-11-21T06:10:57;1.83;;;0.40;;
38224;SDS011;24025;48.138;11.428;2023-11-21T06:13:29;0.73;;;0.30;;
38224;SDS011;24025;48.138;11.428;2023-11-21T06:18:33;4.00;;;0.50;;
38224;SDS011;24025;48.138;11.428;2023-11-21T06:21:04;2.03;;;0.50;;
38224;SDS011;24025;48.138;11.428;2023-11-21T06:23:36;3.78;;;0.50;;
38224;SDS011;24025;48.138;11.428;2023-11-21T06:26:08;1.23;;;0.40;;
38224;SDS011;24025;48.138;11.428;2023-11-21T06:28:40;6.05;;;0.80;;
38224;SDS011;24025;48.138;11.428;2023-11-21T06:31:12;3.03;;;0.45;;
38224;SDS011;24025;48.138;11.428;2023-11-21T06:33:45;0.90;;;0.30;;
38224;SDS011;24025;48.138;11.428;2023-11-21T06:36:17;3.85;;;0.65;;
38224;SDS011;24025;48.138;11.428;2023-11-21T06:38:48;0.40;;;0.40;;
38224;SDS011;24025;48.138;11.428;2023-11-21T06:41:20;3.08;;;0.57;;
38224;SDS011;24025;48.138;11.428;2023-11-21T06:43:52;2.60;;;0.73;;
38224;SDS011;24025;48.138;11.428;2023-11-21T06:48:56;0.95;;;0.30;;
38224;SDS011;24025;48.138;11.428;2023-11-21T06:51:27;4.47;;;0.80;;
38224;SDS011;24025;48.138;11.428;2023-11-21T06:53:59;1.33;;;0.63;;
38224;SDS011;24025;48.138;11.428;2023-11-21T06:56:31;3.60;;;0.75;;
38224;SDS011;24025;48.138;11.428;2023-11-21T06:59:02;4.03;;;0.80;;
38224;SDS011;24025;48.138;11.428;2023-11-21T07:01:36;4.35;;;0.60;;
38224;SDS011;24025;48.138;11.428;2023-11-21T07:04:10;3.17;;;0.70;;
38224;SDS011;24025;48.138;11.428;2023-11-21T07:06:42;2.92;;;0.65;;
38224;SDS011;24025;48.138;11.428;2023-11-21T07:09:14;2.22;;;0.80;;
38224;SDS011;24025;48.138;11.428;2023-11-21T07:11:46;1.70;;;0.57;;
38224;SDS011;24025;48.138;11.428;2023-11-21T07:14:19;1.50;;;0.35;;
38224;SDS011;24025;48.138;11.428;2023-11-21T07:16:51;2.30;;;0.80;;
38224;SDS011;24025;48.138;11.428;2023-11-21T07:19:24;1.40;;;0.50;;
38224;SDS011;24025;48.138;11.428;2023-11-21T07:21:56;0.55;;;0.15;;
38224;SDS011;24025;48.138;11.428;2023-11-21T07:24:27;0.30;;;0.30;;
38224;SDS011;24025;48.138;11.428;2023-11-21T07:26:59;1.93;;;0.30;;
38224;SDS011;24025;48.138;11.428;2023-11-21T07:29:32;1.55;;;0.50;;
38224;SDS011;24025;48.138;11.428;2023-11-21T07:32:04;1.05;;;0.13;;
38224;SDS011;24025;48.138;11.428;2023-11-21T07:34:37;1.30;;;0.20;;
38224;SDS011;24025;48.138;11.428;2023-11-21T07:37:08;2.83;;;0.20;;
38224;SDS011;24025;48.138;11.428;2023-11-21T07:39:40;0.88;;;0.25;;
38224;SDS011;24025;48.138;11.428;2023-11-21T07:42:13;0.52;;;0.20;;
38224;SDS011;24025;48.138;11.428;2023-11-21T07:44:45;2.03;;;0.53;;
38224;SDS011;24025;48.138;11.428;2023-11-21T07:47:17;0.88;;;0.32;;
38224;SDS011;24025;48.138;11.428;2023-11-21T07:49:49;1.02;;;0.43;;
38224;SDS011;24025;48.138;11.428;2023-11-21T07:52:21;1.00;;;0.30;;
38224;SDS011;24025;48.138;11.428;2023-11-21T07:57:24;5.05;;;0.40;;
38224;SDS011;24025;48.138;11.428;2023-11-21T08:02:28;0.50;;;0.30;;
38224;SDS011;24025;48.138;11.428;2023-11-21T08:05:00;1.70;;;0.30;;
38224;SDS011;24025;48.138;11.428;2023-11-21T08:07:32;0.60;;;0.30;;
38224;SDS011;24025;48.138;11.428;2023-11-21T08:10:05;0.98;;;0.30;;
38224;SDS011;24025;48.138;11.428;2023-11-21T08:12:36;1.25;;;0.40;;
38224;SDS011;24025;48.138;11.428;2023-11-21T08:15:09;3.40;;;0.77;;
38224;SDS011;24025;48.138;11.428;2023-11-21T08:17:41;1.80;;;0.20;;
38224;SDS011;24025;48.138;11.428;2023-11-21T08:20:13;0.82;;;0.30;;
38224;SDS011;24025;48.138;11.428;2023-11-21T08:22:47;1.38;;;0.35;;
38224;SDS011;24025;48.138;11.428;2023-11-21T08:25:20;1.55;;;0.38;;
38224;SDS011;24025;48.138;11.428;2023-11-21T08:27:51;2.70;;;0.17;;
38224;SDS011;24025;48.138;11.428;2023-11-21T08:30:23;1.02;;;0.30;;
38224;SDS011;24025;48.138;11.428;2023-11-21T08:32:55;1.98;;;0.38;;
38224;SDS011;24025;48.138;11.428;2023-11-21T08:35:29;1.65;;;0.40;;
38224;SDS011;24025;48.138;11.428;2023-11-21T08:38:02;2.53;;;0.30;;
38224;SDS011;24025;48.138;11.428;2023-11-21T08:40:34;1.25;;;0.47;;
38224;SDS011;24025;48.138;11.428;2023-11-21T08:43:06;0.57;;;0.30;;
38224;SDS011;24025;48.138;11.428;2023-11-21T08:45:40;1.52;;;0.20;;
38224;SDS011;24025;48.138;11.428;2023-11-21T08:48:12;2.38;;;0.30;;
38224;SDS011;24025;48.138;11.428;2023-11-21T08:50:44;0.10;;;0.10;;
38224;SDS011;24025;48.138;11.428;2023-11-21T08:53:15;3.63;;;0.20;;
38224;SDS011;24025;48.138;11.428;2023-11-21T08:55:48;1.92;;;0.28;;
38224;SDS011;24025;48.138;11.428;2023-11-21T08:58:21;1.02;;;0.30;;
38224;SDS011;24025;48.138;11.428;2023-11-21T09:00:52;1.67;;;0.50;;
38224;SDS011;24025;48.138;11.428;2023-11-21T09:03:24;2.10;;;0.40;;
38224;SDS011;24025;48.138;11.428;2023-11-21T09:05:56;1.15;;;0.47;;
38224;SDS011;24025;48.138;11.428;2023-11-21T09:08:27;2.10;;;0.50;;
38224;SDS011;24025;48.138;11.428;2023-11-21T09:11:00;1.38;;;0.20;;
38224;SDS011;24025;48.138;11.428;2023-11-21T09:13:32;3.50;;;0.43;;
38224;SDS011;24025;48.138;11.428;2023-11-21T09:16:04;0.95;;;0.30;;
38224;SDS011;24025;48.138;11.428;2023-11-21T09:18:36;2.53;;;0.73;;
38224;SDS011;24025;48.138;11.428;2023-11-21T09:21:08;2.97;;;0.70;;
38224;SDS011;24025;48.138;11.428;2023-11-21T09:23:40;0.80;;;0.30;;
38224;SDS011;24025;48.138;11.428;2023-11-21T09:28:47;1.17;;;0.40;;
38224;SDS011;24025;48.138;11.428;2023-11-21T09:31:19;1.85;;;0.22;;
38224;SDS011;24025;48.138;11.428;2023-11-21T09:33:54;2.53;;;0.30;;
38224;SDS011;24025;48.138;11.428;2023-11-21T09:36:25;2.40;;;0.40;;
38224;SDS011;24025;48.138;11.428;2023-11-21T09:38:59;1.08;;;0.38;;
38224;SDS011;24025;48.138;11.428;2023-11-21T09:44:11;2.90;;;0.20;;
38224;SDS011;24025;48.138;11.428;2023-11-21T09:46:47;0.30;;;0.20;;
38224;SDS011;24025;48.138;11.428;2023-11-21T09:49:22;5.13;;;0.20;;
38224;SDS011;24025;48.138;11.428;2023-11-21T09:51:58;2.75;;;0.35;;
38224;SDS011;24025;48.138;11.428;2023-11-21T09:54:34;2.08;;;0.63;;
38224;SDS011;24025;48.138;11.428;2023-11-21T09:57:07;3.70;;;0.40;;
38224;SDS011;24025;48.138;11.428;2023-11-21T09:59:40;1.77;;;0.30;;
38224;SDS011;24025;48.138;11.428;2023-11-21T10:02:12;0.85;;;0.30;;
38224;SDS011;24025;48.138;11.428;2023-11-21T10:04:45;1.88;;;0.20;;
38224;SDS011;24025;48.138;11.428;2023-11-21T10:07:18;3.63;;;1.20;;
38224;SDS011;24025;48.138;11.428;2023-11-21T10:09:51;1.83;;;0.40;;
38224;SDS011;24025;48.138;11.428;2023-11-21T10:12:24;3.50;;;0.43;;
38224;SDS011;24025;48.138;11.428;2023-11-21T10:14:58;0.95;;;0.40;;
38224;SDS011;24025;48.138;11.428;2023-11-21T10:17:32;0.40;;;0.20;;
38224;SDS011;24025;48.138;11.428;2023-11-21T10:20:14;1.55;;;0.43;;
38224;SDS011;24025;48.138;11.428;2023-11-21T10:22:46;5.38;;;0.98;;
38224;SDS011;24025;48.138;11.428;2023-11-21T10:25:18;1.58;;;0.50;;
38224;SDS011;24025;48.138;11.428;2023-11-21T10:27:56;1.15;;;0.25;;
38224;SDS011;24025;48.138;11.428;2023-11-21T10:30:36;1.83;;;0.43;;
38224;SDS011;24025;48.138;11.428;2023-11-21T10:33:09;2.05;;;0.38;;
38224;SDS011;24025;48.138;11.428;2023-11-21T10:35:47;2.85;;;0.30;;
38224;SDS011;24025;48.138;11.428;2023-11-21T10:38:23;2.58;;;0.50;;
38224;SDS011;24025;48.138;11.428;2023-11-21T10:40:55;7.13;;;0.40;;
38224;SDS011;24025;48.138;11.428;2023-11-21T10:43:27;0.88;;;0.30;;
38224;SDS011;24025;48.138;11.428;2023-11-21T10:45:59;4.22;;;0.40;;
38224;SDS011;24025;48.138;11.428;2023-11-21T10:48:31;2.92;;;0.50;;
38224;SDS011;24025;48.138;11.428;2023-11-21T10:51:07;4.00;;;0.70;;
38224;SDS011;24025;48.138;11.428;2023-11-21T10:53:40;5.35;;;0.50;;
38224;SDS011;24025;48.138;11.428;2023-11-21T10:56:15;5.90;;;0.40;;
38224;SDS011;24025;48.138;11.428;2023-11-21T10:58:50;2.42;;;0.45;;
38224;SDS011;24025;48.138;11.428;2023-11-21T11:01:23;1.55;;;0.40;;
38224;SDS011;24025;48.138;11.428;2023-11-21T11:04:01;1.70;;;0.40;;
38224;SDS011;24025;48.138;11.428;2023-11-21T11:06:37;1.15;;;0.40;;
38224;SDS011;24025;48.138;11.428;2023-11-21T11:09:10;1.50;;;0.47;;
38224;SDS011;24025;48.138;11.428;2023-11-21T11:11:44;1.52;;;0.47;;
38224;SDS011;24025;48.138;11.428;2023-11-21T11:14:17;0.20;;;0.20;;
38224;SDS011;24025;48.138;11.428;2023-11-21T11:16:52;0.85;;;0.22;;
38224;SDS011;24025;48.138;11.428;2023-11-21T11:19:26;3.40;;;0.40;;
38224;SDS011;24025;48.138;11.428;2023-11-21T11:32:58;2.38;;;0.38;;
38224;SDS011;24025;48.138;11.428;2023-11-21T11:36:26;0.60;;;0.30;;
38224;SDS011;24025;48.138;11.428;2023-11-21T11:42:13;0.80;;;0.22;;
38224;SDS011;24025;48.138;11.428;2023-11-21T11:44:47;1.65;;;0.17;;
38224;SDS011;24025;48.138;11.428;2023-11-21T11:47:24;1.15;;;0.38;;
38224;SDS011;24025;48.138;11.428;2023-11-21T11:52:52;2.10;;;0.55;;
38224;SDS011;24025;48.138;11.428;2023-11-21T11:55:26;1.50;;;0.40;;
38224;SDS011;24025;48.138;11.428;2023-11-21T11:58:04;1.00;;;0.30;;
38224;SDS011;24025;48.138;11.428;2023-11-21T12:00:37;0.50;;;0.20;;
38224;SDS011;24025;48.138;11.428;2023-11-21T12:03:11;0.20;;;0.10;;
38224;SDS011;24025;48.138;11.428;2023-11-21T12:05:46;3.13;;;0.60;;
38224;SDS011;24025;48.138;11.428;2023-11-21T12:08:18;2.35;;;0.20;;
38224;SDS011;24025;48.138;11.428;2023-11-21T12:10:49;0.70;;;0.28;;
38224;SDS011;24025;48.138;11.428;2023-11-21T12:13:25;1.02;;;0.30;;
38224;SDS011;24025;48.138;11.428;2023-11-21T12:15:59;0.50;;;0.30;;
38224;SDS011;24025;48.138;11.428;2023-11-21T12:18:31;0.73;;;0.10;;
38224;SDS011;24025;48.138;11.428;2023-11-21T12:21:03;2.63;;;0.30;;
38224;SDS011;24025;48.138;11.428;2023-11-21T12:23:36;0.57;;;0.22;;
38224;SDS011;24025;48.138;11.428;2023-11-21T12:26:08;0.65;;;0.20;;
38224;SDS011;24025;48.138;11.428;2023-11-21T12:28:40;0.47;;;0.28;;
38224;SDS011;24025;48.138;11.428;2023-11-21T12:31:11;3.00;;;0.28;;
38224;SDS011;24025;48.138;11.428;2023-11-21T12:33:52;0.95;;;0.40;;
38224;SDS011;24025;48.138;11.428;2023-11-21T12:36:24;2.03;;;0.40;;
38224;SDS011;24025;48.138;11.428;2023-11-21T12:41:28;1.02;;;0.30;;
38224;SDS011;24025;48.138;11.428;2023-11-21T12:44:00;0.55;;;0.10;;
38224;SDS011;24025;48.138;11.428;2023-11-21T12:46:31;1.27;;;0.30;;
38224;SDS011;24025;48.138;11.428;2023-11-21T12:49:05;6.70;;;0.13;;
38224;SDS011;24025;48.138;11.428;2023-11-21T12:51:37;0.70;;;0.20;;
38224;SDS011;24025;48.138;11.428;2023-11-21T12:54:09;0.52;;;0.20;;
38224;SDS011;24025;48.138;11.428;2023-11-21T12:56:41;2.35;;;0.30;;
38224;SDS011;24025;48.138;11.428;2023-11-21T12:59:12;0.17;;;0.10;;
38224;SDS011;24025;48.138;11.428;2023-11-21T13:01:47;1.17;;;0.20;;
38224;SDS011;24025;48.138;11.428;2023-11-21T13:04:29;0.63;;;0.28;;
38224;SDS011;24025;48.138;11.428;2023-11-21T13:07:03;2.80;;;0.25;;
38224;SDS011;24025;48.138;11.428;2023-11-21T13:09:44;2.42;;;0.55;;
38224;SDS011;24025;48.138;11.428;2023-11-21T13:12:16;0.68;;;0.35;;
38224;SDS011;24025;48.138;11.428;2023-11-21T13:14:50;0.73;;;0.30;;
38224;SDS011;24025;48.138;11.428;2023-11-21T13:17:23;1.33;;;0.10;;
38224;SDS011;24025;48.138;11.428;2023-11-21T13:19:56;1.17;;;0.17;;
38224;SDS011;24025;48.138;11.428;2023-11-21T13:22:29;2.85;;;0.50;;
38224;SDS011;24025;48.138;11.428;2023-11-21T13:25:00;2.05;;;0.70;;
38224;SDS011;24025;48.138;11.428;2023-11-21T13:27:38;1.90;;;0.40;;
38224;SDS011;24025;48.138;11.428;2023-11-21T13:30:10;1.58;;;0.60;;
38224;SDS011;24025;48.138;11.428;2023-11-21T13:32:42;6.22;;;0.52;;
38224;SDS011;24025;48.138;11.428;2023-11-21T13:35:16;2.72;;;0.70;;
38224;SDS011;24025;48.138;11.428;2023-11-21T13:38:05;1.70;;;0.32;;
38224;SDS011;24025;48.138;11.428;2023-11-21T13:40:40;1.02;;;0.45;;
38224;SDS011;24025;48.138;11.428;2023-11-21T13:43:21;1.13;;;0.50;;
38224;SDS011;24025;48.138;11.428;2023-11-21T13:45:55;0.38;;;0.20;;
38224;SDS011;24025;48.138;11.428;2023-11-21T13:48:44;2.05;;;0.50;;
38224;SDS011;24025;48.138;11.428;2023-11-21T13:51:22;1.30;;;0.40;;
38224;SDS011;24025;48.138;11.428;2023-11-21T13:54:03;0.50;;;0.47;;
38224;SDS011;24025;48.138;11.428;2023-11-21T13:56:40;0.93;;;0.50;;
38224;SDS011;24025;48.138;11.428;2023-11-21T13:59:15;3.92;;;0.50;;
38224;SDS011;24025;48.138;11.428;2023-11-21T14:01:57;1.70;;;0.70;;
38224;SDS011;24025;48.138;11.428;2023-11-21T14:04:32;1.55;;;0.60;;
38224;SDS011;24025;48.138;11.428;2023-11-21T14:07:19;2.33;;;0.25;;
38224;SDS011;24025;48.138;11.428;2023-11-21T14:10:03;0.40;;;0.15;;
38224;SDS011;24025;48.138;11.428;2023-11-21T14:12:38;0.10;;;0.10;;
38224;SDS011;24025;48.138;11.428;2023-11-21T14:15:12;0.73;;;0.00;;
38224;SDS011;24025;48.138;11.428;2023-11-21T14:17:48;0.28;;;0.10;;
38224;SDS011;24025;48.138;11.428;2023-11-21T14:22:52;0.30;;;0.20;;
38224;SDS011;24025;48.138;11.428;2023-11-21T14:25:24;1.80;;;0.10;;
38224;SDS011;24025;48.138;11.428;2023-11-21T14:27:55;0.20;;;0.20;;
38224;SDS011;24025;48.138;11.428;2023-11-21T14:30:28;1.15;;;0.35;;
38224;SDS011;24025;48.138;11.428;2023-11-21T14:33:01;0.30;;;0.20;;
38224;SDS011;24025;48.138;11.428;2023-11-21T14:38:05;2.65;;;0.40;;
38224;SDS011;24025;48.138;11.428;2023-11-21T14:40:37;0.60;;;0.20;;
38224;SDS011;24025;48.138;11.428;2023-11-21T14:43:09;2.63;;;0.50;;
38224;SDS011;24025;48.138;11.428;2023-11-21T14:45:41;1.55;;;0.40;;
38224;SDS011;24025;48.138;11.428;2023-11-21T14:48:12;2.10;;;0.55;;
38224;SDS011;24025;48.138;11.428;2023-11-21T14:51:02;3.72;;;0.30;;
38224;SDS011;24025;48.138;11.428;2023-11-21T14:53:34;0.30;;;0.15;;
38224;SDS011;24025;48.138;11.428;2023-11-21T14:56:24;0.88;;;0.20;;
38224;SDS011;24025;48.138;11.428;2023-11-21T14:59:03;0.40;;;0.32;;
38224;SDS011;24025;48.138;11.428;2023-11-21T15:01:43;1.10;;;0.40;;
38224;SDS011;24025;48.138;11.428;2023-11-21T15:04:27;1.52;;;0.47;;
38224;SDS011;24025;48.138;11.428;2023-11-21T15:07:10;10.02;;;6.07;;
38224;SDS011;24025;48.138;11.428;2023-11-21T15:09:47;6.70;;;4.50;;
38224;SDS011;24025;48.138;11.428;2023-11-21T15:12:20;10.68;;;6.00;;
38224;SDS011;24025;48.138;11.428;2023-11-21T15:14:55;22.52;;;12.65;;
38224;SDS011;24025;48.138;11.428;2023-11-21T15:17:28;3.88;;;2.90;;
38224;SDS011;24025;48.138;11.428;2023-11-21T15:20:02;0.70;;;0.60;;
38224;SDS011;24025;48.138;11.428;2023-11-21T15:22:38;0.82;;;0.40;;
38224;SDS011;24025;48.138;11.428;2023-11-21T15:27:44;3.22;;;0.45;;
38224;SDS011;24025;48.138;11.428;2023-11-21T15:30:18;1.58;;;0.30;;
38224;SDS011;24025;48.138;11.428;2023-11-21T15:32:54;1.73;;;0.47;;
38224;SDS011;24025;48.138;11.428;2023-11-21T15:35:25;1.50;;;0.60;;
38224;SDS011;24025;48.138;11.428;2023-11-21T15:37:59;2.72;;;0.70;;
38224;SDS011;24025;48.138;11.428;2023-11-21T15:40:31;3.42;;;1.13;;
38224;SDS011;24025;48.138;11.428;2023-11-21T15:43:03;5.28;;;2.30;;
38224;SDS011;24025;48.138;11.428;2023-11-21T15:45:34;4.50;;;2.55;;
38224;SDS011;24025;48.138;11.428;2023-11-21T15:48:06;1.63;;;1.23;;
38224;SDS011;24025;48.138;11.428;2023-11-21T15:50:38;1.85;;;0.93;;
38224;SDS011;24025;48.138;11.428;2023-11-21T15:53:09;7.07;;;0.88;;
38224;SDS011;24025;48.138;11.428;2023-11-21T15:55:41;2.08;;;0.82;;
38224;SDS011;24025;48.138;11.428;2023-11-21T15:58:14;0.73;;;0.50;;
38224;SDS011;24025;48.138;11.428;2023-11-21T16:00:45;3.30;;;0.80;;
38224;SDS011;24025;48.138;11.428;2023-11-21T16:03:17;2.15;;;0.57;;
38224;SDS011;24025;48.138;11.428;2023-11-21T16:05:50;2.20;;;0.30;;
38224;SDS011;24025;48.138;11.428;2023-11-21T16:08:22;2.45;;;0.15;;
38224;SDS011;24025;48.138;11.428;2023-11-21T16:10:53;1.08;;;0.30;;